Time;durP1;ratioP1;P1;durP2;ratioP2;P2;SDS_P1;SDS_P2;PMS_P1;PMS_P2;Temp;Humidity;BMP_temperature;BMP_pressure;BME280_temperature;BME280_humidity;BME280_pressure;Samples;Min_cycle;Max_cycle;Signal;HPM_P1;HPM_P2
2020/12/06 00:00:35;;;;;;;16.67;11.40;;;3.00;99.90;;;;;;5097047;28;20454;-88
2020/12/06 00:03:02;;;;;;;14.63;10.57;;;3.10;99.90;;;;;;5097296;28;20224;-89
2020/12/06 00:05:28;;;;;;;14.20;11.27;;;3.10;99.90;;;;;;5112284;28;20838;-89
2020/12/06 00:07:55;;;;;;;13.50;11.17;;;3.10;99.90;;;;;;5116441;28;20445;-90
2020/12/06 00:10:21;;;;;;;12.80;9.30;;;3.10;99.90;;;;;;5113600;28;20481;-89
2020/12/06 00:12:49;;;;;;;14.60;10.93;;;3.00;99.90;;;;;;5114976;28;20420;-88
2020/12/06 00:15:15;;;;;;;14.77;10.20;;;3.00;99.90;;;;;;5107615;28;20462;-88
2020/12/06 00:17:41;;;;;;;13.33;10.30;;;2.90;99.90;;;;;;5096665;28;20945;-88
2020/12/06 00:20:10;;;;;;;14.40;10.63;;;2.90;99.90;;;;;;5101825;28;20450;-89
2020/12/06 00:22:36;;;;;;;15.40;11.50;;;2.80;99.90;;;;;;5115565;28;20830;-89
2020/12/06 00:25:03;;;;;;;15.27;10.80;;;2.80;99.90;;;;;;5115986;28;20969;-88
2020/12/06 00:27:35;;;;;;;13.10;9.90;;;2.70;99.90;;;;;;5096138;28;20483;-88
2020/12/06 00:30:05;;;;;;;13.20;9.57;;;2.70;99.90;;;;;;5109870;28;20493;-88
2020/12/06 00:32:33;;;;;;;14.90;11.20;;;2.60;99.90;;;;;;5109724;28;20438;-88
2020/12/06 00:35:00;;;;;;;15.00;11.37;;;2.50;99.90;;;;;;5095270;28;20413;-88
2020/12/06 00:37:26;;;;;;;13.80;10.52;;;2.40;99.90;;;;;;5111118;28;20445;-88
2020/12/06 00:39:53;;;;;;;12.52;9.73;;;2.40;99.90;;;;;;5116372;28;20567;-88
2020/12/06 00:42:19;;;;;;;14.00;10.68;;;2.30;99.90;;;;;;5103436;28;20640;-89
2020/12/06 00:44:45;;;;;;;13.37;9.77;;;2.30;99.90;;;;;;5095757;28;20249;-88
2020/12/06 00:47:13;;;;;;;14.13;10.20;;;2.30;99.90;;;;;;5095157;28;20500;-88
2020/12/06 00:49:39;;;;;;;11.63;8.50;;;2.30;99.90;;;;;;5095387;28;20232;-88
2020/12/06 00:52:06;;;;;;;13.32;9.40;;;2.20;99.90;;;;;;5112555;28;20549;-88
2020/12/06 00:54:32;;;;;;;13.30;9.38;;;2.20;99.90;;;;;;5108299;28;20211;-89
2020/12/06 00:56:59;;;;;;;12.18;8.90;;;2.20;99.90;;;;;;5114141;28;20195;-87
2020/12/06 00:59:26;;;;;;;13.60;10.23;;;2.20;99.90;;;;;;5116199;28;20202;-88
2020/12/06 01:01:52;;;;;;;14.13;10.20;;;2.20;99.90;;;;;;5116059;28;20929;-87
2020/12/06 01:04:20;;;;;;;14.87;11.47;;;2.20;99.90;;;;;;5099698;28;20446;-87
2020/12/06 01:06:46;;;;;;;15.88;10.52;;;2.10;99.90;;;;;;5096135;28;20454;-88
2020/12/06 01:09:13;;;;;;;13.50;10.47;;;2.20;99.90;;;;;;5094901;28;20204;-88
2020/12/06 01:11:39;;;;;;;16.20;11.00;;;2.20;99.90;;;;;;5094889;28;20820;-87
2020/12/06 01:14:06;;;;;;;17.38;11.68;;;2.20;99.90;;;;;;5094433;28;20215;-88
2020/12/06 01:16:33;;;;;;;15.25;10.57;;;2.20;99.90;;;;;;5095518;28;20208;-88
2020/12/06 01:19:00;;;;;;;14.40;10.73;;;2.10;99.90;;;;;;5094595;28;20226;-87
2020/12/06 01:21:27;;;;;;;13.48;10.05;;;2.20;99.90;;;;;;5103484;28;20252;-87
2020/12/06 01:23:53;;;;;;;15.73;10.43;;;2.20;99.90;;;;;;5116054;28;20203;-86
2020/12/06 01:26:20;;;;;;;13.17;9.83;;;2.20;99.90;;;;;;5115083;28;20298;-86
2020/12/06 01:28:46;;;;;;;14.73;11.45;;;2.20;99.90;;;;;;5115793;28;20445;-85
2020/12/06 01:31:13;;;;;;;16.75;11.18;;;2.30;99.90;;;;;;5105702;28;20223;-86
2020/12/06 01:33:39;;;;;;;15.75;10.55;;;2.30;99.90;;;;;;5115002;28;20203;-86
2020/12/06 01:36:06;;;;;;;14.90;10.80;;;2.30;99.90;;;;;;5114820;28;20261;-86
2020/12/06 01:38:34;;;;;;;13.95;10.05;;;2.30;99.90;;;;;;5115282;28;20199;-86
2020/12/06 01:41:00;;;;;;;15.70;10.70;;;2.30;99.90;;;;;;5106596;28;20567;-87
2020/12/06 01:43:26;;;;;;;15.15;11.43;;;2.30;99.90;;;;;;5095276;28;20245;-85
2020/12/06 01:45:53;;;;;;;17.60;12.25;;;2.30;99.90;;;;;;5095057;28;20246;-86
2020/12/06 01:48:20;;;;;;;14.90;10.40;;;2.30;99.90;;;;;;5093715;28;20245;-86
2020/12/06 01:50:46;;;;;;;13.20;10.60;;;2.30;99.90;;;;;;5094761;28;20215;-86
2020/12/06 01:53:13;;;;;;;17.58;11.25;;;2.30;99.90;;;;;;5094919;28;20234;-86
2020/12/06 01:55:42;;;;;;;15.80;11.60;;;2.30;99.90;;;;;;5105816;28;20198;-86
2020/12/06 01:58:10;;;;;;;17.23;11.80;;;2.30;99.90;;;;;;5114899;28;20207;-86
2020/12/06 02:00:37;;;;;;;16.88;12.07;;;2.30;99.90;;;;;;5107410;28;20451;-86
2020/12/06 02:03:04;;;;;;;16.95;11.13;;;2.20;99.90;;;;;;5094054;28;20261;-86
2020/12/06 02:05:32;;;;;;;17.03;12.67;;;2.20;99.90;;;;;;5094455;28;20206;-86
2020/12/06 02:08:03;;;;;;;18.67;13.45;;;2.20;99.90;;;;;;5094231;28;20449;-94
2020/12/06 02:10:31;;;;;;;17.00;12.80;;;2.20;99.90;;;;;;5094899;28;20647;-87
2020/12/06 02:13:01;;;;;;;18.10;13.77;;;2.20;99.90;;;;;;5112681;28;20199;-86
2020/12/06 02:15:28;;;;;;;15.32;11.35;;;2.20;99.90;;;;;;5115085;28;20825;-86
2020/12/06 02:17:54;;;;;;;20.92;13.80;;;2.10;99.90;;;;;;5115009;28;20261;-86
2020/12/06 02:20:22;;;;;;;21.15;15.10;;;2.10;99.90;;;;;;5107358;28;20200;-86
2020/12/06 02:22:49;;;;;;;19.42;14.48;;;2.10;99.90;;;;;;5094644;28;20203;-87
2020/12/06 02:25:15;;;;;;;23.50;14.63;;;2.10;99.90;;;;;;5094492;28;20273;-86
2020/12/06 02:27:43;;;;;;;25.58;18.45;;;2.20;99.90;;;;;;5102270;28;20669;-87
2020/12/06 02:30:09;;;;;;;26.50;16.95;;;2.10;99.90;;;;;;5113764;28;20317;-87
2020/12/06 02:32:36;;;;;;;22.65;16.05;;;2.20;99.90;;;;;;5114262;28;20247;-86
2020/12/06 02:35:03;;;;;;;21.45;15.25;;;2.30;99.90;;;;;;5114240;28;20625;-87
2020/12/06 02:37:30;;;;;;;22.35;16.02;;;2.30;99.90;;;;;;5114707;28;20201;-86
2020/12/06 02:39:56;;;;;;;22.00;16.30;;;2.30;99.90;;;;;;5105145;28;20207;-86
2020/12/06 02:42:23;;;;;;;22.75;15.55;;;2.30;99.90;;;;;;5100303;28;20220;-86
2020/12/06 02:44:50;;;;;;;21.00;15.25;;;2.30;99.90;;;;;;5119124;28;20202;-86
2020/12/06 02:47:16;;;;;;;23.20;16.25;;;2.30;99.90;;;;;;5119086;28;20255;-85
2020/12/06 02:49:43;;;;;;;25.97;15.07;;;2.30;99.90;;;;;;5103879;28;20195;-86
2020/12/06 02:52:10;;;;;;;24.30;17.20;;;2.30;99.90;;;;;;5098187;28;20498;-86
2020/12/06 02:54:38;;;;;;;24.67;18.15;;;2.30;99.90;;;;;;5117220;28;20251;-86
2020/12/06 02:57:04;;;;;;;27.58;18.33;;;2.30;99.90;;;;;;5118190;28;20206;-86
2020/12/06 02:59:31;;;;;;;21.20;14.35;;;2.40;99.90;;;;;;5122086;28;20210;-86
2020/12/06 03:01:57;;;;;;;27.45;17.42;;;2.40;99.90;;;;;;5122928;28;20588;-85
2020/12/06 03:04:24;;;;;;;21.40;15.82;;;2.50;99.90;;;;;;5111823;28;20268;-86
2020/12/06 03:06:50;;;;;;;21.57;15.23;;;2.50;99.90;;;;;;5115071;28;20221;-86
2020/12/06 03:09:16;;;;;;;20.00;15.52;;;2.50;99.90;;;;;;5124595;28;20446;-86
2020/12/06 03:11:44;;;;;;;21.33;14.95;;;2.50;99.90;;;;;;5123357;28;20383;-87
2020/12/06 03:14:10;;;;;;;20.50;15.32;;;2.60;99.90;;;;;;5098888;28;20282;-88
2020/12/06 03:16:37;;;;;;;23.17;15.93;;;2.60;99.90;;;;;;5098044;28;20203;-87
2020/12/06 03:19:03;;;;;;;19.70;14.65;;;2.70;99.90;;;;;;5097554;28;20711;-88
2020/12/06 03:21:30;;;;;;;24.42;17.15;;;2.80;99.90;;;;;;5098254;28;20589;-87
2020/12/06 03:23:56;;;;;;;22.08;16.20;;;2.80;99.90;;;;;;5098279;28;20547;-88
2020/12/06 03:26:23;;;;;;;21.77;15.25;;;2.80;99.90;;;;;;5099713;28;20204;-88
2020/12/06 03:28:50;;;;;;;22.83;16.42;;;2.90;99.90;;;;;;5117704;28;20276;-87
2020/12/06 03:31:17;;;;;;;19.75;14.80;;;3.00;99.90;;;;;;5118066;28;20219;-88
2020/12/06 03:33:43;;;;;;;17.50;13.93;;;3.00;99.90;;;;;;5103775;28;20203;-87
2020/12/06 03:36:10;;;;;;;19.97;14.23;;;3.00;99.90;;;;;;5097827;28;20446;-87
2020/12/06 03:38:37;;;;;;;19.00;14.63;;;3.10;99.90;;;;;;5097361;28;20491;-86
2020/12/06 03:41:03;;;;;;;20.17;14.07;;;3.10;99.90;;;;;;5096947;28;20922;-88
2020/12/06 03:43:30;;;;;;;20.90;15.17;;;3.10;99.90;;;;;;5097284;28;20591;-87
2020/12/06 03:45:57;;;;;;;17.37;12.70;;;3.20;99.90;;;;;;5097204;28;20447;-87
2020/12/06 03:48:23;;;;;;;21.50;14.73;;;3.20;99.90;;;;;;5097136;28;20882;-87
2020/12/06 03:50:50;;;;;;;20.67;13.93;;;3.20;99.90;;;;;;5097720;28;20532;-88
2020/12/06 03:53:16;;;;;;;20.77;14.23;;;3.30;99.90;;;;;;5097437;28;20442;-86
2020/12/06 03:55:43;;;;;;;19.80;15.57;;;3.30;99.90;;;;;;5113167;28;20475;-87
2020/12/06 03:58:09;;;;;;;17.15;12.35;;;3.30;99.90;;;;;;5107449;28;20453;-87
2020/12/06 04:00:36;;;;;;;21.40;14.63;;;3.30;99.90;;;;;;5118480;28;20593;-87
2020/12/06 04:03:03;;;;;;;18.70;13.48;;;3.30;99.90;;;;;;5117832;28;20634;-92
2020/12/06 04:05:30;;;;;;;19.80;13.73;;;3.30;99.90;;;;;;5098517;28;20192;-87
2020/12/06 04:07:56;;;;;;;16.47;13.97;;;3.40;99.90;;;;;;5097603;28;20454;-87
2020/12/06 04:10:23;;;;;;;19.47;13.97;;;3.40;99.90;;;;;;5096272;28;20878;-86
2020/12/06 04:12:49;;;;;;;19.87;13.57;;;3.30;99.90;;;;;;5097840;28;20420;-86
2020/12/06 04:15:16;;;;;;;18.60;13.70;;;3.30;99.90;;;;;;5098834;28;20793;-86
2020/12/06 04:17:42;;;;;;;19.20;14.37;;;3.30;99.90;;;;;;5101970;28;20439;-87
2020/12/06 04:20:09;;;;;;;17.47;13.47;;;3.40;99.90;;;;;;5101472;28;20835;-88
2020/12/06 04:22:36;;;;;;;19.30;12.37;;;3.40;99.90;;;;;;5114860;28;20838;-87
2020/12/06 04:25:03;;;;;;;18.83;14.83;;;3.40;99.90;;;;;;5115749;28;20888;-91
2020/12/06 04:27:29;;;;;;;19.17;13.83;;;3.40;99.90;;;;;;5115985;28;20526;-88
2020/12/06 04:29:56;;;;;;;21.43;15.07;;;3.30;99.90;;;;;;5116145;28;20453;-87
2020/12/06 04:32:22;;;;;;;17.10;12.77;;;3.40;99.90;;;;;;5117101;28;20439;-87
2020/12/06 04:34:49;;;;;;;20.83;14.50;;;3.40;99.90;;;;;;5107037;28;20516;-87
2020/12/06 04:37:16;;;;;;;19.63;14.47;;;3.40;99.90;;;;;;5096891;28;20492;-87
2020/12/06 04:39:43;;;;;;;19.00;13.70;;;3.40;99.90;;;;;;5096334;28;20432;-86
2020/12/06 04:42:10;;;;;;;19.57;13.17;;;3.40;99.90;;;;;;5096355;28;20768;-86
2020/12/06 04:44:36;;;;;;;18.90;13.50;;;3.40;99.90;;;;;;5096432;28;20752;-87
2020/12/06 04:47:04;;;;;;;24.40;15.20;;;3.40;99.90;;;;;;5095884;28;20983;-90
2020/12/06 04:49:43;;;;;;;19.27;13.93;;;3.40;99.90;;;;;;5096124;28;20446;-87
2020/12/06 04:52:15;;;;;;;22.00;14.27;;;3.40;99.90;;;;;;5099482;28;20483;-87
2020/12/06 04:54:48;;;;;;;21.33;13.60;;;3.40;99.90;;;;;;5116302;28;20515;-88
2020/12/06 04:57:18;;;;;;;18.70;14.33;;;3.40;99.90;;;;;;5111081;28;20521;-88
2020/12/06 04:59:47;;;;;;;19.30;13.60;;;3.40;99.90;;;;;;5116960;28;20445;-88
2020/12/06 05:02:19;;;;;;;21.63;14.33;;;3.40;99.90;;;;;;5116369;28;20457;-87
2020/12/06 05:04:48;;;;;;;19.93;14.63;;;3.40;99.90;;;;;;5116088;28;20483;-86
2020/12/06 05:07:17;;;;;;;21.63;15.13;;;3.50;99.90;;;;;;5116170;28;20446;-90
2020/12/06 05:09:48;;;;;;;18.27;14.07;;;3.50;99.90;;;;;;5115991;28;20543;-86
2020/12/06 05:12:15;;;;;;;18.37;14.03;;;3.50;99.90;;;;;;5099209;28;20222;-87
2020/12/06 05:14:42;;;;;;;17.60;13.00;;;3.50;99.90;;;;;;5111130;28;20474;-86
2020/12/06 05:17:10;;;;;;;23.50;16.20;;;3.50;99.90;;;;;;5112964;28;20477;-86
2020/12/06 05:19:36;;;;;;;19.30;14.77;;;3.50;99.90;;;;;;5095904;28;20487;-86
2020/12/06 05:22:03;;;;;;;20.30;14.47;;;3.40;99.90;;;;;;5095520;28;20491;-88
2020/12/06 05:24:31;;;;;;;18.80;13.90;;;3.40;99.90;;;;;;5106483;28;20913;-87
2020/12/06 05:26:59;;;;;;;22.27;14.90;;;3.40;99.90;;;;;;5115856;28;20465;-87
2020/12/06 05:29:25;;;;;;;19.70;15.63;;;3.50;99.90;;;;;;5095605;28;20455;-88
2020/12/06 05:31:52;;;;;;;22.03;15.90;;;3.50;99.90;;;;;;5094631;28;20490;-86
2020/12/06 05:34:19;;;;;;;21.90;14.50;;;3.50;99.90;;;;;;5095060;28;20843;-87
2020/12/06 05:36:46;;;;;;;24.70;15.30;;;3.50;99.90;;;;;;5095558;28;20506;-87
2020/12/06 05:39:12;;;;;;;22.97;17.00;;;3.50;99.90;;;;;;5094995;28;20906;-88
2020/12/06 05:41:39;;;;;;;20.03;15.20;;;3.50;99.90;;;;;;5108014;28;20877;-88
2020/12/06 05:44:06;;;;;;;23.00;18.57;;;3.50;99.90;;;;;;5115689;28;20442;-89
2020/12/06 05:46:34;;;;;;;24.57;16.70;;;3.50;99.90;;;;;;5114905;28;20845;-87
2020/12/06 05:49:05;;;;;;;22.60;17.43;;;3.40;99.90;;;;;;5115490;28;20532;-88
2020/12/06 05:51:31;;;;;;;25.20;17.23;;;3.50;99.90;;;;;;5115201;28;20495;-89
2020/12/06 05:53:59;;;;;;;24.23;17.00;;;3.50;99.90;;;;;;5115247;28;20445;-87
2020/12/06 05:56:26;;;;;;;26.93;17.57;;;3.50;99.90;;;;;;5113997;28;20516;-86
2020/12/06 05:58:53;;;;;;;24.13;17.50;;;3.50;99.90;;;;;;5113609;28;20518;-86
2020/12/06 06:01:22;;;;;;;27.57;18.87;;;3.50;99.90;;;;;;5114515;28;20444;-87
2020/12/06 06:03:50;;;;;;;26.07;18.07;;;3.50;99.90;;;;;;5097274;28;20503;-86
2020/12/06 06:06:21;;;;;;;27.10;17.67;;;3.40;99.90;;;;;;5094399;28;20420;-87
2020/12/06 06:08:50;;;;;;;24.50;17.03;;;3.40;99.90;;;;;;5094874;28;20420;-87
2020/12/06 06:11:22;;;;;;;24.80;18.87;;;3.40;99.90;;;;;;5094845;28;20536;-86
2020/12/06 06:13:57;;;;;;;23.60;17.60;;;3.30;99.90;;;;;;5094721;28;20511;-86
2020/12/06 06:16:26;;;;;;;26.88;19.08;;;3.30;99.90;;;;;;5100900;28;20437;-86
2020/12/06 06:18:54;;;;;;;27.00;18.63;;;3.40;99.90;;;;;;5112434;28;20240;-86
2020/12/06 06:21:25;;;;;;;28.47;19.47;;;3.40;99.90;;;;;;5093220;28;20332;-86
2020/12/06 06:23:54;;;;;;;26.35;16.63;;;3.60;99.90;;;;;;5094027;28;20439;-85
2020/12/06 06:26:24;;;;;;;25.80;17.77;;;3.50;99.90;;;;;;5096580;28;20512;-88
2020/12/06 06:28:53;;;;;;;22.03;15.07;;;3.50;99.90;;;;;;5115039;28;20484;-86
2020/12/06 06:31:20;;;;;;;27.93;18.57;;;3.50;99.90;;;;;;5093877;28;20527;-87
2020/12/06 06:33:48;;;;;;;26.87;18.10;;;3.40;99.90;;;;;;5094118;28;20526;-87
2020/12/06 06:36:21;;;;;;;24.57;17.53;;;3.50;99.90;;;;;;5093578;28;20500;-87
2020/12/06 06:38:48;;;;;;;21.50;16.20;;;3.40;99.90;;;;;;5094257;28;20425;-87
2020/12/06 06:41:16;;;;;;;24.73;17.60;;;3.40;99.90;;;;;;5103693;28;20436;-87
2020/12/06 06:43:43;;;;;;;29.83;19.87;;;3.50;99.90;;;;;;5093532;28;20500;-87
2020/12/06 06:46:14;;;;;;;27.27;18.43;;;3.50;99.90;;;;;;5093519;28;20769;-88
2020/12/06 06:48:44;;;;;;;26.07;18.63;;;3.50;99.90;;;;;;5093745;28;20894;-86
2020/12/06 06:57:32;;;;;;;30.33;21.83;;;3.50;99.90;;;;;;5095060;28;20906;-86
2020/12/06 07:00:02;;;;;;;31.15;20.83;;;3.40;99.90;;;;;;5094948;28;20434;-86
2020/12/06 07:02:34;;;;;;;31.37;20.37;;;3.30;99.90;;;;;;5095529;28;20195;-86
2020/12/06 07:12:19;;;;;;;23.70;17.67;;;3.50;99.90;;;;;;5032950;28;20514;-87
2020/12/06 07:22:16;;;;;;;29.87;19.97;;;3.50;99.90;;;;;;5051929;28;20436;-86
2020/12/06 07:24:42;;;;;;;31.80;20.57;;;3.40;99.90;;;;;;5052685;28;20420;-86
2020/12/06 07:27:09;;;;;;;31.20;20.90;;;3.40;99.90;;;;;;5051093;28;20471;-84
2020/12/06 07:30:11;;;;;;;26.93;20.00;;;3.30;99.90;;;;;;5076824;28;20458;-86
2020/12/06 08:09:50;;;;;;;31.43;19.80;;;3.70;99.90;;;;;;5094698;28;20489;-86
2020/12/06 08:12:17;;;;;;;30.20;21.63;;;3.70;99.90;;;;;;5079247;28;20525;-87
2020/12/06 08:15:03;;;;;;;26.63;19.07;;;3.70;99.90;;;;;;5079064;28;20473;-87
2020/12/06 08:17:55;;;;;;;28.60;19.40;;;3.80;99.90;;;;;;5078699;28;20505;-87
2020/12/06 08:20:23;;;;;;;29.07;20.40;;;3.90;99.90;;;;;;5077545;28;20961;-85
2020/12/06 08:22:52;;;;;;;28.40;20.37;;;3.90;99.90;;;;;;5078140;28;20564;-85
2020/12/06 08:25:21;;;;;;;31.10;19.30;;;3.90;99.90;;;;;;5077412;28;20425;-85
2020/12/06 08:31:24;;;;;;;28.10;20.70;;;4.00;99.90;;;;;;5077787;28;20446;-85
2020/12/06 08:37:17;;;;;;;30.95;20.83;;;3.90;99.90;;;;;;5077526;28;20383;-85
2020/12/06 08:46:55;;;;;;;35.10;21.37;;;4.30;99.90;;;;;;5076639;28;20768;-86
2020/12/06 08:56:37;;;;;;;29.60;20.23;;;4.40;99.90;;;;;;5077315;28;20447;-86
2020/12/06 09:02:48;;;;;;;28.00;19.80;;;4.50;99.90;;;;;;5076914;28;20537;-85
2020/12/06 09:57:47;;;;;;;31.13;21.43;;;5.00;99.90;;;;;;5079773;28;20478;-86
2020/12/06 10:03:37;;;;;;;30.10;22.03;;;5.10;99.90;;;;;;5076010;28;20417;-87
2020/12/06 10:10:07;;;;;;;27.47;20.97;;;5.10;99.90;;;;;;5075350;28;20446;-87
2020/12/06 10:13:11;;;;;;;35.03;22.50;;;5.10;99.90;;;;;;5075447;28;20541;-86
2020/12/06 10:15:39;;;;;;;27.30;21.10;;;5.00;99.90;;;;;;5078599;28;20431;-84
2020/12/06 10:18:10;;;;;;;37.93;23.60;;;5.20;99.90;;;;;;5094244;28;20452;-86
2020/12/06 10:20:39;;;;;;;26.63;20.37;;;5.10;99.90;;;;;;5075273;28;20447;-84
2020/12/06 10:23:08;;;;;;;27.37;21.23;;;5.20;99.90;;;;;;5075388;28;20426;-85
2020/12/06 10:25:35;;;;;;;30.23;21.60;;;5.20;99.90;;;;;;5075451;28;20447;-85
2020/12/06 10:28:02;;;;;;;29.27;21.33;;;5.20;99.90;;;;;;5074549;28;20460;-85
2020/12/06 10:30:28;;;;;;;30.57;22.63;;;5.20;99.90;;;;;;5075743;28;20476;-86
2020/12/06 10:33:13;;;;;;;31.10;20.77;;;5.10;99.90;;;;;;5076451;28;20439;-85
2020/12/06 10:38:47;;;;;;;24.83;19.03;;;5.30;99.90;;;;;;5075055;28;20518;-85
2020/12/06 10:41:14;;;;;;;27.97;20.20;;;5.40;99.90;;;;;;5075172;28;20845;-85
2020/12/06 10:43:45;;;;;;;23.67;18.53;;;5.50;99.90;;;;;;5075244;28;20470;-85
2020/12/06 10:46:16;;;;;;;25.43;19.50;;;5.50;99.90;;;;;;5075861;28;20946;-85
2020/12/06 10:49:05;;;;;;;26.07;19.33;;;5.50;99.90;;;;;;5076301;28;20470;-85
2020/12/06 11:02:00;;;;;;;27.87;20.27;;;5.30;99.90;;;;;;5071917;28;20403;-85
2020/12/06 11:04:28;;;;;;;28.50;20.03;;;5.20;99.90;;;;;;5064657;28;20460;-83
2020/12/06 11:06:57;;;;;;;36.97;23.27;;;5.20;99.90;;;;;;5063329;28;20519;-83
2020/12/06 11:09:29;;;;;;;29.73;21.43;;;5.10;99.90;;;;;;5064032;28;20450;-85
2020/12/06 11:11:56;;;;;;;28.57;19.30;;;5.10;99.90;;;;;;5072708;28;20538;-84
2020/12/06 11:14:22;;;;;;;24.97;19.63;;;5.10;99.90;;;;;;5073861;28;20455;-85
2020/12/06 11:16:52;;;;;;;30.83;22.60;;;5.20;99.90;;;;;;5076207;28;20834;-83
2020/12/06 11:19:20;;;;;;;34.77;24.77;;;5.20;99.90;;;;;;5075323;28;20447;-85
2020/12/06 11:21:51;;;;;;;35.93;25.27;;;5.20;99.90;;;;;;5078067;28;20453;-85
2020/12/06 11:24:24;;;;;;;32.47;23.67;;;5.20;99.90;;;;;;5078077;28;20443;-84
2020/12/06 11:26:50;;;;;;;27.27;19.90;;;5.20;99.90;;;;;;5078975;28;20454;-86
2020/12/06 11:29:20;;;;;;;27.17;20.93;;;5.20;99.90;;;;;;5077832;28;20453;-85
2020/12/06 11:31:49;;;;;;;30.20;21.57;;;5.30;99.90;;;;;;5079140;28;20547;-84
2020/12/06 11:34:18;;;;;;;30.27;22.63;;;5.40;99.90;;;;;;5078699;28;20445;-85
2020/12/06 11:36:51;;;;;;;28.77;21.00;;;5.50;99.90;;;;;;5081850;28;20513;-85
2020/12/06 11:39:28;;;;;;;32.70;22.83;;;5.50;99.90;;;;;;5090024;28;20445;-85
2020/12/06 11:41:58;;;;;;;30.30;22.77;;;5.50;99.90;;;;;;5079412;28;20446;-86
2020/12/06 11:44:27;;;;;;;29.47;22.40;;;5.50;99.90;;;;;;5079810;28;20506;-83
2020/12/06 11:46:54;;;;;;;32.03;23.43;;;5.60;99.90;;;;;;5082806;28;20449;-84
2020/12/06 11:49:21;;;;;;;33.50;23.80;;;5.70;99.90;;;;;;5084083;28;20449;-85
2020/12/06 11:51:48;;;;;;;29.03;23.70;;;5.80;99.90;;;;;;5073279;28;20886;-85
2020/12/06 11:54:16;;;;;;;34.07;22.20;;;5.70;99.90;;;;;;5072810;28;20433;-85
2020/12/06 11:56:49;;;;;;;32.27;22.90;;;5.60;99.90;;;;;;5083277;28;20453;-83
2020/12/06 11:59:17;;;;;;;33.20;23.13;;;5.60;99.90;;;;;;5083300;28;20448;-83
2020/12/06 12:01:43;;;;;;;34.23;24.43;;;5.60;99.90;;;;;;5073593;28;20456;-84
2020/12/06 12:04:10;;;;;;;30.50;22.77;;;5.50;99.90;;;;;;5076072;28;20448;-86
2020/12/06 12:06:36;;;;;;;37.47;24.30;;;5.40;99.90;;;;;;5070801;28;20450;-86
2020/12/06 12:09:15;;;;;;;30.80;22.27;;;5.30;99.90;;;;;;5067286;28;20449;-84
2020/12/06 12:11:42;;;;;;;25.77;20.70;;;5.30;99.90;;;;;;5075527;28;20472;-85
2020/12/06 12:14:08;;;;;;;30.00;21.87;;;5.30;99.90;;;;;;5078565;28;20448;-92
2020/12/06 12:16:36;;;;;;;27.57;20.63;;;5.30;99.90;;;;;;5078729;28;20627;-84
2020/12/06 12:19:05;;;;;;;24.50;19.50;;;5.40;99.90;;;;;;5075101;28;20460;-86
2020/12/06 12:21:32;;;;;;;28.70;21.77;;;5.40;99.90;;;;;;5077849;28;20466;-86
2020/12/06 12:23:58;;;;;;;32.20;23.50;;;5.40;99.90;;;;;;5075978;28;20520;-86
2020/12/06 12:26:26;;;;;;;30.70;21.57;;;5.40;99.90;;;;;;5078335;28;20920;-85
2020/12/06 12:28:53;;;;;;;27.83;20.30;;;5.40;99.90;;;;;;5075868;28;20500;-86
2020/12/06 12:31:21;;;;;;;33.37;23.80;;;5.40;99.90;;;;;;5075438;28;20469;-86
2020/12/06 12:33:48;;;;;;;26.63;20.67;;;5.50;99.90;;;;;;5076593;28;20447;-85
2020/12/06 12:36:14;;;;;;;27.47;22.03;;;5.40;99.90;;;;;;5075324;28;20456;-86
2020/12/06 12:38:41;;;;;;;29.43;21.90;;;5.50;99.90;;;;;;5077528;28;20448;-86
2020/12/06 12:41:12;;;;;;;30.90;21.93;;;5.50;99.90;;;;;;5076149;28;20519;-86
2020/12/06 12:43:56;;;;;;;28.87;21.10;;;5.50;99.90;;;;;;5076952;28;20726;-92
2020/12/06 12:46:25;;;;;;;28.73;20.07;;;5.50;99.90;;;;;;5075763;28;20452;-85
2020/12/06 12:48:51;;;;;;;28.67;21.20;;;5.40;99.90;;;;;;5089188;28;20571;-85
2020/12/06 12:51:18;;;;;;;29.93;21.90;;;5.40;99.90;;;;;;5075698;28;20536;-85
2020/12/06 12:53:45;;;;;;;28.40;21.20;;;5.30;99.90;;;;;;5076511;28;20448;-86
2020/12/06 12:56:13;;;;;;;28.77;21.40;;;5.30;99.90;;;;;;5075317;28;20544;-86
2020/12/06 12:58:44;;;;;;;33.07;21.53;;;5.40;99.90;;;;;;5075616;28;20485;-84
2020/12/06 13:01:10;;;;;;;31.00;21.60;;;5.40;99.90;;;;;;5066503;28;20904;-93
2020/12/06 13:03:41;;;;;;;30.70;20.87;;;5.40;99.90;;;;;;5068868;28;20516;-86
2020/12/06 13:06:12;;;;;;;39.10;24.93;;;5.40;99.90;;;;;;5067230;28;20483;-86
2020/12/06 13:08:41;;;;;;;29.10;22.30;;;5.40;99.90;;;;;;5073051;28;20437;-86
2020/12/06 13:11:08;;;;;;;29.90;21.50;;;5.40;99.90;;;;;;5075627;28;20573;-86
2020/12/06 13:13:35;;;;;;;31.63;21.13;;;5.30;99.90;;;;;;5075151;28;20787;-85
2020/12/06 13:16:06;;;;;;;32.40;22.60;;;5.40;99.90;;;;;;5083328;28;20495;-86
2020/12/06 13:18:33;;;;;;;29.70;20.57;;;5.40;99.90;;;;;;5075880;28;20473;-85
2020/12/06 13:21:00;;;;;;;27.10;19.40;;;5.30;99.90;;;;;;5085998;28;20446;-85
2020/12/06 13:23:26;;;;;;;26.67;19.73;;;5.40;99.90;;;;;;5069956;28;20914;-86
2020/12/06 13:25:53;;;;;;;27.40;20.20;;;5.40;99.90;;;;;;5075188;28;20446;-85
2020/12/06 13:28:20;;;;;;;30.80;20.63;;;5.40;99.90;;;;;;5078869;28;20458;-86
2020/12/06 13:30:47;;;;;;;25.60;19.80;;;5.40;99.90;;;;;;5079754;28;20527;-85
2020/12/06 13:33:17;;;;;;;29.80;21.27;;;5.50;99.90;;;;;;5058185;28;20812;-85
2020/12/06 13:35:44;;;;;;;29.63;21.83;;;5.50;99.90;;;;;;5069898;28;20871;-86
2020/12/06 13:38:13;;;;;;;25.40;19.37;;;5.40;99.90;;;;;;5068359;28;20907;-86
2020/12/06 13:40:40;;;;;;;29.60;20.57;;;5.40;99.90;;;;;;5054932;28;20447;-86
2020/12/06 13:43:06;;;;;;;30.57;19.97;;;5.50;99.90;;;;;;5063411;28;20444;-86
2020/12/06 13:45:53;;;;;;;25.10;19.80;;;5.50;99.90;;;;;;5073382;28;20466;-88
2020/12/06 13:48:40;;;;;;;33.33;24.70;;;5.50;99.90;;;;;;5065482;28;20800;-89
2020/12/06 13:51:22;;;;;;;28.23;21.03;;;5.50;99.90;;;;;;5072322;28;20451;-86
2020/12/06 13:53:52;;;;;;;27.97;19.77;;;5.50;99.90;;;;;;5068462;28;20449;-86
2020/12/06 13:56:20;;;;;;;25.80;20.20;;;5.50;99.90;;;;;;5070534;28;20454;-85
2020/12/06 13:58:58;;;;;;;28.83;20.20;;;5.40;99.90;;;;;;5078319;28;20541;-88
2020/12/06 14:01:25;;;;;;;30.90;20.60;;;5.40;99.90;;;;;;5079829;28;20458;-86
2020/12/06 14:03:53;;;;;;;29.07;21.00;;;5.50;99.90;;;;;;5078671;28;20831;-85
2020/12/06 14:06:19;;;;;;;27.10;20.30;;;5.50;99.90;;;;;;5075525;28;20819;-85
2020/12/06 15:22:27;;;;;;;30.37;20.27;;;5.20;99.90;;;;;;5025128;28;20982;-84
2020/12/06 15:24:54;;;;;;;32.10;23.57;;;5.10;99.90;;;;;;5045505;28;20448;-85
2020/12/06 15:27:20;;;;;;;29.90;21.47;;;5.00;99.90;;;;;;5043509;28;20445;-85
2020/12/06 15:29:47;;;;;;;31.40;22.87;;;5.00;99.90;;;;;;5026710;28;20533;-84
2020/12/06 15:32:13;;;;;;;33.87;21.90;;;5.00;99.90;;;;;;5027511;28;20489;-86
2020/12/06 15:34:40;;;;;;;33.20;22.40;;;5.00;99.90;;;;;;5036181;28;20836;-86
2020/12/06 15:37:07;;;;;;;33.30;23.48;;;5.10;99.90;;;;;;5032555;28;20503;-86
2020/12/06 15:39:34;;;;;;;29.17;20.90;;;5.10;99.90;;;;;;5037803;28;20252;-85
2020/12/06 15:42:15;;;;;;;28.30;21.60;;;5.20;99.90;;;;;;5037621;28;20526;-85
2020/12/06 15:44:46;;;;;;;28.97;21.57;;;5.20;99.90;;;;;;5038866;28;20955;-84
2020/12/06 15:47:32;;;;;;;28.70;21.03;;;5.20;99.90;;;;;;5037749;28;20886;-85
2020/12/06 15:50:00;;;;;;;25.53;18.73;;;5.10;99.90;;;;;;5044792;28;20455;-84
2020/12/06 15:52:38;;;;;;;22.33;17.17;;;5.10;99.90;;;;;;5026617;28;20496;-85
2020/12/06 15:55:08;;;;;;;22.33;17.07;;;5.10;99.90;;;;;;5027084;28;20523;-85
2020/12/06 15:57:35;;;;;;;26.20;20.60;;;5.10;99.90;;;;;;5038194;28;20460;-85
2020/12/06 16:00:01;;;;;;;25.50;19.47;;;5.00;99.90;;;;;;5037196;28;20451;-84
2020/12/06 16:02:28;;;;;;;27.57;21.33;;;5.00;99.90;;;;;;5037763;28;20445;-85
2020/12/06 16:04:54;;;;;;;25.40;20.67;;;5.00;99.90;;;;;;5037702;28;20472;-85
2020/12/06 16:07:25;;;;;;;22.07;17.33;;;4.90;99.90;;;;;;5036232;28;20455;-83
2020/12/06 16:09:52;;;;;;;26.90;19.87;;;5.00;99.90;;;;;;5035199;28;20444;-84
2020/12/06 16:12:20;;;;;;;22.83;17.27;;;5.00;99.90;;;;;;5036280;28;20483;-86
2020/12/06 16:14:46;;;;;;;24.97;18.10;;;4.90;99.90;;;;;;5031259;28;20460;-88
2020/12/06 16:17:19;;;;;;;25.40;17.87;;;4.90;99.90;;;;;;5035831;28;20510;-87
2020/12/06 16:19:46;;;;;;;27.67;21.20;;;5.00;99.90;;;;;;5037839;28;20439;-86
2020/12/06 16:22:12;;;;;;;31.27;22.83;;;4.80;99.90;;;;;;5048225;28;20478;-87
2020/12/06 16:24:39;;;;;;;28.07;21.63;;;4.80;99.90;;;;;;5060214;28;20448;-89
2020/12/06 16:27:06;;;;;;;25.90;19.60;;;4.90;99.90;;;;;;5066713;28;20508;-87
2020/12/06 16:29:39;;;;;;;35.50;23.30;;;4.90;99.90;;;;;;5054712;28;20520;-86
2020/12/06 16:32:06;;;;;;;33.70;24.27;;;4.80;99.90;;;;;;5063529;28;20487;-86
2020/12/06 16:34:33;;;;;;;25.10;18.77;;;4.80;99.90;;;;;;5060842;28;20461;-87